Terminal Aerodrome Forecast
Issued by NWS

Home | Current Version | Previous Version | Text Only | Print | Product List | Glossary On
Versions: 1 2 3 4 5 6 7 8 9 10 11 12 13 14 15 16 17 18 19 20 21 22 23 24 25 26 27 28 29 30
000
FTUS41 KOKX 200531
TAFSWF
TAF
KSWF 200531Z 2006/2112 29013G20KT P6SM SCT070
     FM201400 28018G26KT P6SM SCT040
     FM202200 27011G19KT P6SM FEW040
     FM210000 26008KT P6SM SKC
     FM210400 VRB04KT P6SM SKC
      AMD NOT SKED=

USA.gov is the U.S. government's official web portal to all federal, state and local government web resources and services.